Time;durP1;ratioP1;P1;durP2;ratioP2;P2;SDS_P1;SDS_P2;PMS_P1;PMS_P2;Temp;Humidity;BMP_temperature;BMP_pressure;BME280_temperature;BME280_humidity;BME280_pressure;Samples;Min_cycle;Max_cycle;Signal;HPM_P1;HPM_P2
2023/09/15 00:00:24;;;;;;;7.83;5.83;;;;;;;17.75;65.14;96486.22;4940833;29;20194;-71
2023/09/15 00:02:58;;;;;;;6.27;5.67;;;;;;;17.85;64.86;96477.66;4941267;29;20425;-72
2023/09/15 00:05:26;;;;;;;7.30;5.80;;;;;;;17.93;64.60;96483.28;4938556;29;20415;-72
2023/09/15 00:07:52;;;;;;;9.00;7.43;;;;;;;17.78;65.07;96478.03;4939917;29;20450;-70
2023/09/15 00:10:21;;;;;;;6.97;5.50;;;;;;;17.69;65.33;96477.84;4937900;29;20460;-69
2023/09/15 00:12:46;;;;;;;8.13;5.90;;;;;;;17.79;65.12;96486.88;4940917;29;20423;-70
2023/09/15 00:15:12;;;;;;;6.33;5.70;;;;;;;17.81;64.97;96482.34;4942972;29;20447;-71
2023/09/15 00:17:40;;;;;;;8.23;5.10;;;;;;;17.76;65.41;96476.47;4940646;29;20740;-71
2023/09/15 00:20:13;;;;;;;6.43;5.40;;;;;;;17.83;65.34;96474.25;4940654;29;20195;-72
2023/09/15 00:22:49;;;;;;;7.03;5.37;;;;;;;17.73;65.56;96476.69;4942320;29;20419;-69
2023/09/15 00:25:22;;;;;;;6.77;5.60;;;;;;;17.77;65.40;96480.81;4939757;29;20410;-70
2023/09/15 00:27:50;;;;;;;7.07;6.37;;;;;;;17.84;65.27;96475.97;4936440;29;20545;-70
2023/09/15 00:30:17;;;;;;;8.40;5.50;;;;;;;17.74;65.68;96479.25;4939719;29;21220;-70
2023/09/15 00:32:43;;;;;;;7.20;6.20;;;;;;;17.80;65.69;96477.09;4940081;29;21055;-71
2023/09/15 00:35:09;;;;;;;8.70;6.90;;;;;;;17.70;66.02;96474.25;4943608;29;20410;-72
2023/09/15 00:37:34;;;;;;;7.43;5.87;;;;;;;17.62;66.20;96474.78;4942689;29;20442;-72
2023/09/15 00:40:00;;;;;;;7.77;6.70;;;;;;;17.55;66.55;96474.41;4943770;29;20217;-72
2023/09/15 00:42:26;;;;;;;9.27;6.63;;;;;;;17.39;67.55;96475.59;4941092;29;20171;-70
2023/09/15 00:44:51;;;;;;;6.67;5.87;;;;;;;17.43;67.27;96477.88;4942629;29;20326;-73
2023/09/15 00:47:18;;;;;;;8.30;6.50;;;;;;;17.39;67.77;96476.44;4941505;29;20205;-69
2023/09/15 00:49:46;;;;;;;8.80;7.87;;;;;;;17.39;67.75;96471.13;4941777;29;20201;-71
2023/09/15 00:52:11;;;;;;;8.20;7.23;;;;;;;17.35;67.93;96474.94;4943636;29;20421;-71
2023/09/15 00:54:39;;;;;;;7.83;6.27;;;;;;;17.49;67.42;96472.16;4942187;29;20862;-72
2023/09/15 00:57:05;;;;;;;11.50;6.63;;;;;;;17.52;67.05;96471.94;4927883;29;20186;-70
2023/09/15 00:59:31;;;;;;;10.60;6.50;;;;;;;17.44;67.80;96460.19;4943671;29;20466;-70
2023/09/15 01:01:57;;;;;;;10.83;7.40;;;;;;;17.41;68.01;96461.25;4942301;29;20434;-69
2023/09/15 01:04:23;;;;;;;9.07;8.17;;;;;;;17.33;68.29;96455.63;4942361;29;20514;-68
2023/09/15 01:06:50;;;;;;;7.53;6.67;;;;;;;17.30;68.50;96453.19;4945833;29;20266;-70
2023/09/15 01:09:16;;;;;;;12.90;8.07;;;;;;;17.21;68.59;96459.13;4942294;29;20454;-72
2023/09/15 01:11:42;;;;;;;9.97;8.03;;;;;;;17.32;68.31;96456.59;4935216;29;20452;-70
2023/09/15 01:14:08;;;;;;;10.70;7.73;;;;;;;17.12;69.16;96456.16;4933254;29;20552;-73
2023/09/15 01:16:46;;;;;;;8.77;7.20;;;;;;;17.03;69.35;96453.28;4931116;29;20223;-73
2023/09/15 01:19:30;;;;;;;12.20;9.00;;;;;;;17.05;69.56;96462.84;4934216;29;20775;-72
2023/09/15 01:22:19;;;;;;;7.70;6.70;;;;;;;17.22;68.96;96458.16;4932556;29;20418;-72
2023/09/15 01:24:58;;;;;;;8.73;7.83;;;;;;;17.15;69.18;96452.47;4933061;29;20881;-72
2023/09/15 01:27:39;;;;;;;9.60;7.47;;;;;;;17.14;69.23;96448.09;4935768;29;20951;-71
2023/09/15 01:30:05;;;;;;;7.47;6.37;;;;;;;17.22;69.07;96448.44;4937431;29;20446;-72
2023/09/15 01:32:33;;;;;;;8.37;7.47;;;;;;;17.27;68.48;96451.59;4938566;29;20787;-70
2023/09/15 01:35:05;;;;;;;7.87;6.63;;;;;;;17.18;69.07;96451.41;4942342;29;20421;-71
2023/09/15 01:37:31;;;;;;;9.77;7.50;;;;;;;17.22;68.66;96442.25;4941553;29;21148;-70
2023/09/15 01:39:59;;;;;;;8.20;7.40;;;;;;;17.05;69.67;96444.28;4943046;29;20431;-72
2023/09/15 01:42:24;;;;;;;9.17;8.30;;;;;;;17.14;69.50;96446.28;4946206;29;20270;-70
2023/09/15 01:44:49;;;;;;;9.37;7.63;;;;;;;17.01;70.15;96442.81;4944189;29;21326;-69
2023/09/15 01:47:19;;;;;;;13.23;8.20;;;;;;;17.04;70.01;96444.41;4940034;29;20210;-73
2023/09/15 01:49:45;;;;;;;11.17;8.03;;;;;;;17.13;69.59;96446.41;4933540;29;20202;-72
2023/09/15 01:52:11;;;;;;;8.17;6.97;;;;;;;16.98;70.31;96440.34;4934662;29;20848;-71
2023/09/15 01:54:37;;;;;;;8.33;7.20;;;;;;;17.08;69.75;96443.25;4931462;29;20417;-71
2023/09/15 01:57:03;;;;;;;9.13;8.07;;;;;;;17.12;69.81;96436.75;4932265;29;20418;-71
2023/09/15 01:59:28;;;;;;;9.70;7.80;;;;;;;17.19;69.58;96442.47;4932744;29;20198;-71
2023/09/15 02:01:54;;;;;;;11.37;8.00;;;;;;;17.20;69.35;96434.44;4934420;29;20512;-71
2023/09/15 02:04:19;;;;;;;9.60;8.70;;;;;;;17.10;70.21;96436.88;4936016;29;20183;-72
2023/09/15 02:06:45;;;;;;;11.43;7.57;;;;;;;17.08;70.21;96436.13;4934898;29;20218;-72
2023/09/15 02:09:14;;;;;;;10.20;7.80;;;;;;;16.99;70.60;96439.41;4932833;29;20206;-72
2023/09/15 02:11:39;;;;;;;8.93;8.00;;;;;;;17.12;70.27;96437.59;4937308;29;20183;-72
2023/09/15 02:14:05;;;;;;;9.20;7.70;;;;;;;16.97;70.49;96440.47;4935011;29;20907;-72
2023/09/15 02:16:31;;;;;;;8.67;7.60;;;;;;;17.14;70.19;96435.69;4932994;29;20233;-70
2023/09/15 02:18:56;;;;;;;9.47;8.17;;;;;;;17.06;70.19;96443.34;4941788;29;20214;-72
2023/09/15 02:21:22;;;;;;;8.90;8.00;;;;;;;16.75;71.39;96438.38;4935100;29;20501;-70
2023/09/15 02:23:47;;;;;;;21.93;8.43;;;;;;;16.93;70.76;96432.72;4936598;29;20199;-71
2023/09/15 02:26:12;;;;;;;8.43;7.60;;;;;;;16.99;70.67;96433.25;4934923;29;20194;-72
2023/09/15 02:28:38;;;;;;;9.30;8.03;;;;;;;16.95;70.49;96437.91;4934051;29;20297;-71
2023/09/15 02:31:04;;;;;;;9.20;8.30;;;;;;;17.04;70.57;96439.94;4933906;29;20732;-71
2023/09/15 02:33:30;;;;;;;10.73;8.50;;;;;;;16.82;71.67;96439.69;4935226;29;20724;-72
2023/09/15 02:35:55;;;;;;;9.70;8.33;;;;;;;16.92;71.25;96444.28;4937144;29;20418;-72
2023/09/15 02:38:20;;;;;;;8.87;7.80;;;;;;;16.96;71.13;96450.22;4937194;29;20202;-70
2023/09/15 02:40:46;;;;;;;13.53;8.47;;;;;;;16.88;71.51;96440.13;4937089;29;20185;-72
2023/09/15 02:43:11;;;;;;;10.70;8.10;;;;;;;17.01;71.07;96442.81;4936318;29;20266;-72
2023/09/15 02:45:37;;;;;;;10.60;9.13;;;;;;;16.95;70.95;96442.38;4935619;29;20668;-73
2023/09/15 02:48:06;;;;;;;11.20;9.40;;;;;;;16.82;71.92;96439.69;4937629;29;20279;-72
2023/09/15 02:50:32;;;;;;;13.33;9.37;;;;;;;16.80;72.13;96431.88;4933542;29;20182;-73
2023/09/15 02:52:59;;;;;;;9.20;8.33;;;;;;;16.88;71.48;96436.63;4936232;29;21021;-71
2023/09/15 02:55:24;;;;;;;9.57;8.57;;;;;;;16.80;72.29;96442.47;4938523;29;20418;-73
2023/09/15 02:57:54;;;;;;;10.63;8.73;;;;;;;16.94;71.77;96441.53;4937548;29;20461;-72
2023/09/15 03:00:20;;;;;;;8.87;8.03;;;;;;;16.91;71.36;96445.25;4940166;29;20199;-70
2023/09/15 03:02:46;;;;;;;10.13;8.60;;;;;;;16.89;71.70;96451.56;4940183;29;20495;-71
2023/09/15 03:05:12;;;;;;;11.80;8.87;;;;;;;17.01;71.58;96440.16;4940060;29;20218;-71
2023/09/15 03:07:39;;;;;;;9.80;8.30;;;;;;;16.89;71.61;96435.66;4937045;29;20866;-71
2023/09/15 03:10:08;;;;;;;12.00;9.13;;;;;;;16.72;72.49;96436.78;4937084;29;21010;-73
2023/09/15 03:12:35;;;;;;;9.27;8.30;;;;;;;16.90;71.79;96438.22;4935788;29;20415;-71
2023/09/15 03:15:06;;;;;;;11.83;9.60;;;;;;;16.80;72.20;96436.34;4940380;29;20434;-71
2023/09/15 03:17:39;;;;;;;9.43;8.50;;;;;;;16.88;72.03;96428.69;4940787;29;20527;-71
2023/09/15 03:20:11;;;;;;;10.00;8.43;;;;;;;16.88;72.21;96434.00;4938901;29;20443;-71
2023/09/15 03:22:36;;;;;;;11.10;9.73;;;;;;;16.81;72.14;96432.72;4937574;29;20432;-72
2023/09/15 03:25:02;;;;;;;16.93;10.10;;;;;;;16.72;72.89;96428.84;4937657;29;20503;-70
2023/09/15 03:27:27;;;;;;;9.23;8.03;;;;;;;16.78;72.75;96427.59;4934845;29;20214;-71
2023/09/15 03:29:52;;;;;;;11.30;8.50;;;;;;;16.71;72.87;96420.06;4936134;29;20298;-71
2023/09/15 03:32:18;;;;;;;10.83;9.90;;;;;;;16.82;72.61;96423.78;4936037;29;20239;-71
2023/09/15 03:34:43;;;;;;;10.67;9.57;;;;;;;16.82;72.54;96424.66;4936035;29;20315;-72
2023/09/15 03:37:08;;;;;;;12.33;9.53;;;;;;;16.79;72.72;96427.50;4934027;29;20174;-72
2023/09/15 03:39:34;;;;;;;12.47;8.93;;;;;;;16.64;73.43;96421.44;4934050;29;20680;-72
2023/09/15 03:41:59;;;;;;;11.20;9.73;;;;;;;16.48;74.29;96418.13;4947345;29;20370;-71
2023/09/15 03:44:25;;;;;;;12.03;8.93;;;;;;;16.52;73.58;96411.66;4947471;29;20684;-72
2023/09/15 03:46:50;;;;;;;11.20;8.90;;;;;;;16.62;73.69;96411.88;4944900;29;20731;-70
2023/09/15 03:49:16;;;;;;;10.13;8.90;;;;;;;16.55;73.66;96402.66;4947891;28;20214;-72
2023/09/15 03:51:42;;;;;;;9.97;8.80;;;;;;;16.43;73.59;96401.69;4947245;29;20178;-71
2023/09/15 03:54:07;;;;;;;12.13;10.20;;;;;;;16.47;73.97;96401.38;4947961;29;20531;-70
2023/09/15 03:56:32;;;;;;;11.03;9.60;;;;;;;16.40;74.65;96401.91;4945853;29;20244;-70
2023/09/15 03:58:58;;;;;;;10.60;9.50;;;;;;;16.31;74.52;96406.00;4947137;29;20220;-69
2023/09/15 04:01:25;;;;;;;13.40;9.60;;;;;;;16.28;75.09;96407.06;4949081;29;20643;-69
2023/09/15 04:03:50;;;;;;;12.03;10.17;;;;;;;16.01;75.92;96401.78;4950928;29;20174;-70
2023/09/15 04:06:16;;;;;;;10.07;8.57;;;;;;;16.12;75.30;96406.38;4917991;29;20477;-70
2023/09/15 04:08:42;;;;;;;11.43;9.50;;;;;;;16.06;75.59;96391.75;4929761;29;20207;-71
2023/09/15 04:11:08;;;;;;;14.20;10.90;;;;;;;16.33;74.97;96393.50;4950529;29;20175;-70
2023/09/15 04:13:33;;;;;;;10.07;8.77;;;;;;;16.32;74.93;96383.00;4917177;29;20944;-71
2023/09/15 04:16:00;;;;;;;11.13;8.53;;;;;;;16.17;75.34;96395.47;4933458;29;20202;-69
2023/09/15 04:18:27;;;;;;;12.83;9.67;;;;;;;16.26;74.77;96389.59;4946731;29;20194;-70
2023/09/15 04:20:55;;;;;;;15.03;10.37;;;;;;;16.28;74.56;96393.81;4947036;29;20445;-70
2023/09/15 04:23:24;;;;;;;12.90;9.47;;;;;;;16.14;75.52;96387.75;4951194;29;20434;-69
2023/09/15 04:25:49;;;;;;;10.90;8.77;;;;;;;16.03;75.38;96391.09;4934732;29;20446;-70
2023/09/15 04:28:15;;;;;;;27.13;10.40;;;;;;;16.28;74.18;96383.22;4949649;29;20451;-71
2023/09/15 04:30:40;;;;;;;10.67;9.20;;;;;;;16.16;74.52;96386.69;4940532;29;20206;-72
2023/09/15 04:33:05;;;;;;;19.93;11.20;;;;;;;16.11;74.95;96387.94;4940336;29;20155;-72
2023/09/15 04:35:31;;;;;;;22.60;10.60;;;;;;;16.13;74.95;96386.88;4942247;29;20553;-70
2023/09/15 04:37:57;;;;;;;17.93;10.33;;;;;;;16.08;74.80;96379.25;4926007;29;20183;-73
2023/09/15 04:40:23;;;;;;;14.97;10.13;;;;;;;16.02;75.16;96386.78;4942529;29;20226;-71
2023/09/15 04:42:49;;;;;;;10.70;8.10;;;;;;;16.06;74.62;96381.16;4919983;29;20481;-72
2023/09/15 04:45:14;;;;;;;13.33;10.73;;;;;;;15.98;75.39;96388.75;4936654;29;20198;-72
2023/09/15 04:47:40;;;;;;;14.30;9.20;;;;;;;16.11;74.65;96385.28;4933403;29;20210;-71
2023/09/15 04:50:07;;;;;;;12.90;10.10;;;;;;;16.12;74.53;96385.19;4935187;29;20198;-70
2023/09/15 04:52:33;;;;;;;10.40;8.67;;;;;;;15.88;75.56;96390.31;4942240;29;20517;-70
2023/09/15 04:54:58;;;;;;;10.00;9.00;;;;;;;15.99;74.94;96392.25;4944102;29;20446;-71
2023/09/15 04:57:24;;;;;;;14.90;9.30;;;;;;;16.03;75.24;96394.59;4937118;29;20214;-70
2023/09/15 04:59:54;;;;;;;11.00;9.50;;;;;;;16.20;74.22;96385.53;4942692;29;20199;-69
2023/09/15 05:02:23;;;;;;;10.80;8.70;;;;;;;15.97;74.86;96394.13;4944133;29;20233;-72
2023/09/15 05:04:50;;;;;;;12.83;11.30;;;;;;;15.86;75.31;96394.84;4937385;29;21792;-71
2023/09/15 05:07:15;;;;;;;11.00;9.53;;;;;;;15.97;74.56;96391.50;4933740;28;20484;-71
2023/09/15 05:09:41;;;;;;;28.40;10.50;;;;;;;16.08;74.25;96387.19;4936761;28;20434;-71
2023/09/15 05:12:06;;;;;;;11.93;9.50;;;;;;;16.01;74.79;96387.69;4936960;29;20824;-73
2023/09/15 05:14:32;;;;;;;24.50;11.13;;;;;;;16.09;74.43;96393.34;4934364;29;20174;-71
2023/09/15 05:16:57;;;;;;;18.60;8.83;;;;;;;16.00;74.47;96396.59;4928934;29;20740;-71
2023/09/15 05:19:23;;;;;;;9.90;8.87;;;;;;;15.94;75.27;96397.00;4927811;29;20197;-69
2023/09/15 05:21:48;;;;;;;13.97;10.10;;;;;;;15.81;74.98;96403.09;4935826;29;20194;-67
2023/09/15 05:24:13;;;;;;;20.00;8.97;;;;;;;15.94;74.93;96402.28;4928222;29;20193;-70
2023/09/15 05:26:39;;;;;;;12.30;10.00;;;;;;;15.99;74.23;96403.69;4927309;29;20199;-68
2023/09/15 05:29:04;;;;;;;14.67;8.40;;;;;;;16.24;73.55;96402.91;4927504;29;20257;-68
2023/09/15 05:31:30;;;;;;;10.27;9.23;;;;;;;16.77;71.59;96402.03;4918505;29;20183;-69
2023/09/15 05:33:55;;;;;;;11.03;9.27;;;;;;;17.26;69.61;96403.97;4911822;29;20886;-70
2023/09/15 05:36:21;;;;;;;10.47;9.10;;;;;;;18.03;66.94;96396.66;4910511;29;20184;-74
2023/09/15 05:38:50;;;;;;;13.87;8.90;;;;;;;18.58;64.45;96402.31;4909517;29;20194;-69
2023/09/15 05:41:16;;;;;;;9.30;7.40;;;;;;;18.76;63.64;96408.91;4927097;29;20222;-69
2023/09/15 05:43:42;;;;;;;10.53;8.20;;;;;;;19.35;61.14;96405.22;4929864;29;20446;-68
2023/09/15 05:46:08;;;;;;;8.30;7.30;;;;;;;19.69;60.09;96407.03;4930911;29;20281;-67
2023/09/15 05:48:33;;;;;;;11.63;7.50;;;;;;;19.79;59.04;96402.66;4927244;29;20955;-68
2023/09/15 05:50:59;;;;;;;12.33;8.60;;;;;;;19.67;59.62;96401.78;4928638;29;20809;-68
2023/09/15 05:53:24;;;;;;;11.17;7.33;;;;;;;20.09;58.15;96401.97;4926270;29;20668;-67
2023/09/15 05:55:50;;;;;;;9.33;7.43;;;;;;;20.49;56.97;96398.66;4928479;29;20185;-69
2023/09/15 05:58:15;;;;;;;8.93;7.77;;;;;;;20.37;56.57;96408.53;4929348;29;20261;-69
2023/09/15 06:00:41;;;;;;;7.67;6.87;;;;;;;20.47;56.37;96398.78;4930436;29;20230;-68
2023/09/15 06:03:07;;;;;;;9.07;6.87;;;;;;;20.47;55.89;96404.13;4929889;29;20519;-69
2023/09/15 06:05:33;;;;;;;8.37;7.57;;;;;;;21.07;54.72;96399.09;4930596;29;20414;-68
2023/09/15 06:07:59;;;;;;;8.33;7.23;;;;;;;21.74;52.40;96396.84;4929623;29;20233;-69
2023/09/15 06:10:24;;;;;;;8.17;6.70;;;;;;;21.27;53.46;96393.84;4930307;29;20776;-67
2023/09/15 06:12:50;;;;;;;7.80;7.00;;;;;;;21.65;52.50;96398.50;4929914;29;20202;-68
2023/09/15 06:15:16;;;;;;;10.27;7.63;;;;;;;21.22;53.65;96401.41;4930264;29;20267;-67
2023/09/15 06:17:41;;;;;;;10.10;7.10;;;;;;;21.32;53.53;96397.78;4929382;29;20471;-69
2023/09/15 06:20:07;;;;;;;8.40;7.60;;;;;;;21.76;52.03;96400.25;4929913;29;20195;-71
2023/09/15 06:22:34;;;;;;;8.50;7.30;;;;;;;21.31;53.12;96398.78;4928725;29;20990;-68
2023/09/15 06:25:02;;;;;;;8.47;7.47;;;;;;;21.76;51.93;96401.09;4926410;29;20281;-68
2023/09/15 06:27:27;;;;;;;8.40;7.50;;;;;;;21.93;51.57;96388.88;4925269;29;20482;-68
2023/09/15 06:29:53;;;;;;;7.80;7.00;;;;;;;21.53;52.80;96396.94;4927564;29;20454;-69
2023/09/15 06:32:18;;;;;;;9.07;7.63;;;;;;;22.37;50.43;96396.53;4929192;29;20186;-72
2023/09/15 06:34:44;;;;;;;12.97;8.63;;;;;;;22.45;50.29;96399.38;4929784;29;20187;-69
2023/09/15 06:37:09;;;;;;;11.40;8.80;;;;;;;22.15;51.17;96402.97;4928518;29;20171;-69
2023/09/15 06:39:36;;;;;;;8.93;7.90;;;;;;;21.31;52.98;96403.28;4926702;29;20210;-69
2023/09/15 06:42:04;;;;;;;15.53;8.47;;;;;;;20.84;55.03;96403.72;4931702;29;20233;-69
2023/09/15 06:44:31;;;;;;;11.23;8.87;;;;;;;20.42;56.24;96411.66;4929899;29;20422;-70
2023/09/15 06:46:56;;;;;;;10.30;8.67;;;;;;;21.07;54.28;96406.22;4929346;29;20458;-68
2023/09/15 06:49:21;;;;;;;12.00;8.93;;;;;;;21.13;54.35;96400.38;4928811;29;20455;-68
2023/09/15 06:51:50;;;;;;;15.63;9.83;;;;;;;20.98;54.61;96410.56;4928880;29;20174;-68
2023/09/15 06:54:15;;;;;;;10.17;9.07;;;;;;;20.88;55.29;96402.50;4911914;29;20187;-67
2023/09/15 06:56:40;;;;;;;12.53;9.60;;;;;;;21.01;54.94;96404.09;4927619;29;20439;-70
2023/09/15 06:59:06;;;;;;;9.13;8.23;;;;;;;21.35;54.03;96402.88;4928574;29;20285;-69
2023/09/15 07:01:31;;;;;;;9.33;8.43;;;;;;;20.77;55.61;96410.56;4928560;29;20206;-69
2023/09/15 07:03:57;;;;;;;14.20;9.23;;;;;;;21.64;53.77;96402.19;4928742;29;20183;-70
2023/09/15 07:06:22;;;;;;;10.37;8.70;;;;;;;21.88;52.94;96393.81;4928947;29;20186;-70
2023/09/15 07:08:49;;;;;;;9.67;8.67;;;;;;;21.99;52.57;96398.16;4927966;29;20207;-69
2023/09/15 07:11:18;;;;;;;17.37;10.30;;;;;;;21.30;54.23;96406.91;4928773;29;20182;-69
2023/09/15 07:13:43;;;;;;;11.30;10.10;;;;;;;21.13;55.04;96403.03;4928556;29;20423;-69
2023/09/15 07:16:09;;;;;;;10.73;9.63;;;;;;;21.33;54.75;96398.63;4933972;29;20501;-70
2023/09/15 07:18:35;;;;;;;13.43;10.00;;;;;;;21.89;53.25;96400.81;4928152;29;20199;-69
2023/09/15 07:21:00;;;;;;;12.80;10.40;;;;;;;21.68;53.97;96397.41;4926533;29;20869;-69
2023/09/15 07:23:26;;;;;;;11.67;9.70;;;;;;;21.92;53.66;96405.91;4929600;29;20423;-68
2023/09/15 07:25:51;;;;;;;15.17;10.10;;;;;;;20.83;56.36;96407.34;4929643;29;20193;-69
2023/09/15 07:28:17;;;;;;;13.40;12.00;;;;;;;20.45;57.40;96407.88;4928140;29;20249;-67
2023/09/15 07:30:42;;;;;;;12.87;11.67;;;;;;;20.95;56.67;96408.13;4928139;29;20274;-69
2023/09/15 07:33:08;;;;;;;13.63;10.90;;;;;;;21.01;56.58;96404.09;4928493;29;20197;-67
2023/09/15 07:35:36;;;;;;;17.80;12.60;;;;;;;20.10;59.15;96419.63;4929055;29;20179;-70
2023/09/15 07:38:02;;;;;;;13.17;11.80;;;;;;;19.76;60.23;96432.19;4927777;29;20182;-69
2023/09/15 07:40:27;;;;;;;15.57;13.97;;;;;;;19.44;61.71;96435.56;4928517;29;20908;-69
2023/09/15 07:42:53;;;;;;;15.33;13.73;;;;;;;19.05;63.29;96432.41;4927932;29;20451;-68
2023/09/15 07:45:18;;;;;;;18.83;15.57;;;;;;;18.90;63.56;96429.13;4928431;29;20187;-70
2023/09/15 07:47:44;;;;;;;16.17;14.47;;;;;;;18.74;64.61;96431.22;4928194;29;20702;-69
2023/09/15 07:50:09;;;;;;;15.70;14.30;;;;;;;18.09;66.66;96443.16;4930817;29;20563;-69
2023/09/15 07:52:35;;;;;;;16.50;14.93;;;;;;;18.01;67.10;96429.59;4930285;29;20190;-70
2023/09/15 07:55:00;;;;;;;16.07;14.33;;;;;;;18.41;66.06;96438.13;4927835;29;20190;-70
2023/09/15 07:57:25;;;;;;;18.40;15.60;;;;;;;17.86;67.83;96432.41;4929378;29;20183;-71
2023/09/15 07:59:52;;;;;;;18.57;16.77;;;;;;;17.49;69.18;96426.22;4930104;29;20703;-70
2023/09/15 08:02:18;;;;;;;19.40;17.50;;;;;;;17.44;69.93;96429.19;4929819;29;20542;-67
2023/09/15 08:04:43;;;;;;;18.47;16.67;;;;;;;17.33;70.75;96434.41;4929780;29;21294;-69
2023/09/15 08:07:09;;;;;;;22.07;19.40;;;;;;;17.35;70.87;96435.97;4927840;29;20573;-70
2023/09/15 08:09:34;;;;;;;21.30;18.90;;;;;;;17.07;71.88;96436.22;4925045;29;20206;-70
2023/09/15 08:12:00;;;;;;;19.63;17.63;;;;;;;17.75;69.64;96429.66;4928261;29;20194;-68
2023/09/15 08:14:26;;;;;;;20.13;18.17;;;;;;;17.65;69.62;96434.78;4927663;29;20193;-68
2023/09/15 08:16:51;;;;;;;22.00;16.73;;;;;;;17.91;68.48;96430.28;4929430;29;20679;-69
2023/09/15 08:19:17;;;;;;;18.83;16.10;;;;;;;17.88;68.96;96434.94;4929216;29;20530;-69
2023/09/15 08:21:43;;;;;;;22.27;16.70;;;;;;;17.74;69.64;96447.38;4929527;29;20723;-69
2023/09/15 08:24:08;;;;;;;16.77;15.07;;;;;;;17.79;69.63;96441.75;4929825;29;20230;-69
2023/09/15 08:26:33;;;;;;;19.37;17.47;;;;;;;17.38;70.43;96453.50;4929709;29;20874;-70
2023/09/15 08:28:59;;;;;;;24.63;16.80;;;;;;;17.13;71.50;96457.03;4929435;29;20198;-69
2023/09/15 08:31:26;;;;;;;17.90;16.00;;;;;;;17.43;71.24;96448.69;4929617;29;20496;-69
2023/09/15 08:33:52;;;;;;;18.93;16.03;;;;;;;17.60;70.13;96444.00;4930021;29;20477;-70
2023/09/15 08:36:18;;;;;;;17.10;15.40;;;;;;;16.88;73.03;96452.53;4929698;29;21161;-68
2023/09/15 08:38:43;;;;;;;18.47;14.23;;;;;;;17.33;71.11;96451.16;4929072;29;20446;-70
2023/09/15 08:41:29;;;;;;;17.63;15.70;;;;;;;17.34;70.60;96450.22;4929694;29;20607;-70
2023/09/15 08:43:55;;;;;;;23.90;16.10;;;;;;;17.29;70.80;96448.81;4915099;28;20272;-68
2023/09/15 08:46:22;;;;;;;19.77;15.90;;;;;;;17.36;70.56;96450.09;4928865;29;20581;-69
2023/09/15 08:48:50;;;;;;;18.47;15.30;;;;;;;17.34;70.20;96442.25;4931997;28;20549;-70
2023/09/15 08:51:17;;;;;;;16.43;14.70;;;;;;;17.18;71.16;96449.59;4929162;29;20486;-70
2023/09/15 08:53:45;;;;;;;17.63;15.10;;;;;;;16.60;72.92;96451.72;4932371;29;20453;-68
2023/09/15 08:56:10;;;;;;;18.80;16.17;;;;;;;16.71;72.94;96445.72;4929612;29;20555;-70
2023/09/15 08:58:36;;;;;;;21.60;16.90;;;;;;;16.37;74.14;96450.63;4929628;29;20527;-70
2023/09/15 09:01:07;;;;;;;17.67;15.47;;;;;;;16.40;74.33;96450.41;4929720;29;20175;-68
2023/09/15 09:03:35;;;;;;;19.73;16.50;;;;;;;16.89;72.25;96448.94;4930532;29;20491;-70
2023/09/15 09:06:03;;;;;;;19.17;16.30;;;;;;;16.87;72.53;96448.22;4931666;29;20756;-68
2023/09/15 09:08:28;;;;;;;21.13;16.80;;;;;;;16.89;72.58;96451.56;4937580;29;20474;-71
2023/09/15 09:10:54;;;;;;;20.40;17.27;;;;;;;16.88;72.43;96445.44;4930949;29;20415;-67
2023/09/15 09:13:21;;;;;;;20.23;16.20;;;;;;;17.04;71.36;96445.25;4930209;29;20170;-69
2023/09/15 09:15:47;;;;;;;23.07;15.77;;;;;;;17.43;70.37;96443.41;4931224;29;20190;-70
2023/09/15 09:18:16;;;;;;;19.97;15.27;;;;;;;17.31;70.78;96436.31;4928953;29;20414;-69
2023/09/15 09:20:43;;;;;;;16.93;15.07;;;;;;;17.13;71.28;96439.31;4922887;29;20447;-69
2023/09/15 09:23:09;;;;;;;23.90;15.33;;;;;;;17.26;70.80;96435.78;4892612;29;21044;-67
2023/09/15 09:25:35;;;;;;;17.73;15.93;;;;;;;17.32;70.80;96438.03;4913489;29;20443;-69
2023/09/15 09:28:03;;;;;;;17.50;14.53;;;;;;;17.17;70.34;96436.44;4907299;29;20482;-69
2023/09/15 09:30:32;;;;;;;18.27;15.10;;;;;;;17.05;71.04;96440.78;4904782;29;21158;-70
2023/09/15 09:32:58;;;;;;;22.30;17.87;;;;;;;17.13;70.70;96443.75;4909986;29;20411;-69
2023/09/15 09:35:24;;;;;;;24.83;22.30;;;;;;;16.85;71.76;96455.41;4911261;29;20584;-69
2023/09/15 09:37:51;;;;;;;28.53;25.63;;;;;;;17.02;71.62;96443.66;4911285;29;20463;-69
2023/09/15 09:40:18;;;;;;;27.13;24.23;;;;;;;17.07;70.81;96445.03;4913717;29;20195;-70
2023/09/15 09:42:44;;;;;;;33.13;28.33;;;;;;;17.23;70.86;96450.13;4910814;29;20781;-71
2023/09/15 09:45:10;;;;;;;32.20;27.50;;;;;;;17.27;70.20;96445.47;4915646;29;20423;-68
2023/09/15 09:47:36;;;;;;;39.70;35.30;;;;;;;17.23;69.90;96442.16;4923920;29;20470;-67
2023/09/15 09:50:07;;;;;;;45.07;40.47;;;;;;;17.42;70.04;96438.22;4924909;29;20199;-68
2023/09/15 09:52:33;;;;;;;20.17;17.00;;;;;;;17.42;69.79;96435.56;4923846;29;20499;-70
2023/09/15 09:55:04;;;;;;;17.97;16.07;;;;;;;17.29;70.40;96440.88;4923081;29;20439;-70
2023/09/15 09:57:30;;;;;;;18.73;16.73;;;;;;;17.40;69.92;96437.47;4919051;29;20172;-69
2023/09/15 09:59:55;;;;;;;19.37;16.03;;;;;;;17.35;69.86;96437.78;4913397;29;20442;-67
2023/09/15 10:02:20;;;;;;;20.10;16.80;;;;;;;17.07;71.35;96444.19;4910552;29;20675;-70
2023/09/15 10:04:46;;;;;;;18.00;15.30;;;;;;;17.10;71.24;96433.34;4910250;29;20177;-70
2023/09/15 10:07:12;;;;;;;18.87;15.10;;;;;;;17.25;70.74;96432.28;4910029;29;20202;-70
2023/09/15 10:09:39;;;;;;;18.83;16.63;;;;;;;17.52;69.67;96432.13;4909144;29;20290;-69
2023/09/15 10:12:04;;;;;;;47.03;37.60;;;;;;;17.37;69.94;96432.41;4909881;29;20200;-69
2023/09/15 10:14:31;;;;;;;21.87;18.53;;;;;;;17.39;69.63;96431.31;4910459;29;20459;-68
2023/09/15 10:16:58;;;;;;;28.13;21.87;;;;;;;17.45;69.56;96432.69;4909467;29;20688;-71
2023/09/15 10:19:25;;;;;;;17.70;15.00;;;;;;;17.53;69.50;96431.19;4909269;29;20440;-68
2023/09/15 10:21:51;;;;;;;18.67;15.20;;;;;;;17.55;69.70;96423.97;4924589;29;21234;-69
2023/09/15 10:24:17;;;;;;;21.10;16.50;;;;;;;17.47;69.55;96431.63;4908853;29;20443;-70
2023/09/15 10:26:42;;;;;;;18.73;14.40;;;;;;;17.72;69.07;96421.91;4925166;29;20648;-69
2023/09/15 10:29:12;;;;;;;19.03;16.33;;;;;;;17.76;68.42;96424.25;4922750;29;20404;-70
2023/09/15 10:31:46;;;;;;;20.00;17.20;;;;;;;17.35;70.13;96428.03;4927764;29;20222;-70
2023/09/15 10:34:13;;;;;;;30.67;27.17;;;;;;;17.40;69.77;96425.06;4920880;29;20521;-69
2023/09/15 10:36:39;;;;;;;23.27;17.33;;;;;;;17.71;68.77;96417.56;4927444;29;21051;-69
2023/09/15 10:39:15;;;;;;;22.10;16.87;;;;;;;17.91;68.32;96419.66;4929839;29;20553;-69
2023/09/15 10:41:41;;;;;;;19.83;16.90;;;;;;;18.07;67.36;96430.00;4931480;29;20426;-70
2023/09/15 10:44:07;;;;;;;19.60;15.77;;;;;;;17.87;68.28;96426.13;4937246;28;20464;-69
2023/09/15 10:46:41;;;;;;;20.73;16.33;;;;;;;18.00;67.89;96418.13;4925685;29;20514;-69
2023/09/15 10:49:32;;;;;;;17.80;15.43;;;;;;;17.95;67.81;96415.81;4928581;29;20461;-68
2023/09/15 10:52:00;;;;;;;19.27;15.80;;;;;;;18.09;67.58;96413.94;4925216;29;20450;-68
2023/09/15 10:54:30;;;;;;;20.70;15.80;;;;;;;18.23;67.15;96405.78;4928790;29;20513;-68
2023/09/15 10:56:57;;;;;;;21.70;16.37;;;;;;;18.33;66.46;96412.13;4928559;29;20474;-69
2023/09/15 10:59:24;;;;;;;19.67;16.13;;;;;;;18.52;66.32;96408.94;4926248;29;21125;-68
2023/09/15 11:01:50;;;;;;;20.43;16.87;;;;;;;18.81;65.40;96401.41;4926037;29;20888;-70
2023/09/15 11:04:22;;;;;;;19.60;15.63;;;;;;;19.00;64.65;96403.50;4928907;29;20434;-69
2023/09/15 11:06:53;;;;;;;20.97;16.03;;;;;;;18.77;65.58;96401.78;4928525;29;20289;-67
2023/09/15 11:09:19;;;;;;;17.50;15.73;;;;;;;18.77;65.47;96401.78;4925844;29;20532;-68
2023/09/15 11:11:49;;;;;;;16.53;14.40;;;;;;;18.85;64.96;96398.50;4924302;29;20527;-69
2023/09/15 11:14:19;;;;;;;49.40;18.70;;;;;;;18.98;64.81;96399.28;4927481;29;20435;-68
2023/09/15 11:16:48;;;;;;;16.77;15.00;;;;;;;18.95;64.41;96403.03;4927621;29;20441;-69
2023/09/15 11:19:14;;;;;;;16.07;14.20;;;;;;;19.03;64.26;96389.97;4925852;29;21345;-71
2023/09/15 11:21:40;;;;;;;16.60;14.90;;;;;;;18.91;65.01;96393.56;4925198;29;20451;-69